Time;durP1;ratioP1;P1;durP2;ratioP2;P2;SDS_P1;SDS_P2;PMS_P1;PMS_P2;Temp;Humidity;BMP_temperature;BMP_pressure;BME280_temperature;BME280_humidity;BME280_pressure;Samples;Min_cycle;Max_cycle;Signal;HPM_P1;HPM_P2
2021/11/16 00:00:09;;;;;;;;;;;6.50;99.90;;;;;;5092491;28;20282;-86
2021/11/16 00:02:34;;;;;;;;;;;6.40;99.90;;;;;;5092465;28;19905;-86
2021/11/16 00:05:00;;;;;;;;;;;6.50;99.90;;;;;;5086932;28;19911;-86
2021/11/16 00:07:26;;;;;;;;;;;6.40;99.90;;;;;;5095080;28;19904;-86
2021/11/16 00:09:51;;;;;;;;;;;6.40;99.90;;;;;;5091920;28;19904;-86
2021/11/16 00:12:17;;;;;;;;;;;6.50;99.90;;;;;;5098669;28;19942;-87
2021/11/16 00:14:43;;;;;;;;;;;6.50;99.90;;;;;;5088264;28;19908;-86
2021/11/16 00:17:08;;;;;;;;;;;6.60;99.90;;;;;;5097625;28;19904;-86
2021/11/16 00:19:35;;;;;;;;;;;6.60;99.90;;;;;;5095006;28;19904;-85
2021/11/16 00:22:02;;;;;;;;;;;6.50;99.90;;;;;;5089944;28;19951;-86
2021/11/16 00:24:46;;;;;;;;;;;6.40;99.90;;;;;;5095787;28;19904;-86
2021/11/16 00:27:12;;;;;;;;;;;6.30;99.90;;;;;;5091502;28;19999;-86
2021/11/16 00:29:38;;;;;;;;;;;6.50;99.90;;;;;;5095880;28;20367;-86
2021/11/16 00:32:06;;;;;;;;;;;6.40;99.90;;;;;;5097088;28;19904;-86
2021/11/16 00:34:32;;;;;;;;;;;6.40;99.90;;;;;;5094022;28;19904;-86
2021/11/16 00:36:57;;;;;;;;;;;6.50;99.90;;;;;;5089240;28;19911;-86
2021/11/16 00:39:23;;;;;;;;;;;6.70;99.90;;;;;;5096582;28;19908;-85
2021/11/16 00:41:49;;;;;;;;;;;6.70;99.90;;;;;;5087901;28;19903;-86
2021/11/16 00:44:15;;;;;;;;;;;6.70;99.90;;;;;;5095282;28;19954;-86
2021/11/16 00:46:41;;;;;;;;;;;6.80;99.90;;;;;;5096524;28;19951;-86
2021/11/16 00:49:06;;;;;;;;;;;6.80;99.90;;;;;;5090245;28;19904;-86
2021/11/16 00:51:32;;;;;;;;;;;6.70;99.90;;;;;;5095152;28;19908;-86
2021/11/16 00:53:58;;;;;;;;;;;6.80;99.90;;;;;;5088899;28;19904;-86
2021/11/16 00:56:23;;;;;;;;;;;6.60;99.90;;;;;;5095128;28;20029;-86
2021/11/16 00:58:49;;;;;;;;;;;6.70;99.90;;;;;;5087521;28;19907;-86
2021/11/16 01:01:14;;;;;;;;;;;6.70;99.90;;;;;;5094975;28;19904;-86
2021/11/16 01:03:40;;;;;;;;;;;6.70;99.90;;;;;;5094865;28;20293;-86
2021/11/16 01:06:06;;;;;;;;;;;6.70;99.90;;;;;;5096136;28;19910;-85
2021/11/16 01:08:31;;;;;;;;;;;6.70;99.90;;;;;;5093292;28;19904;-86
2021/11/16 01:10:57;;;;;;;;;;;6.80;99.90;;;;;;5088505;28;19950;-85
2021/11/16 01:13:23;;;;;;;;;;;6.80;99.90;;;;;;5094750;28;19970;-86
2021/11/16 01:15:50;;;;;;;;;;;6.80;99.90;;;;;;5096153;28;19958;-86
2021/11/16 01:18:17;;;;;;;;;;;6.80;99.90;;;;;;5090849;28;20325;-86
2021/11/16 01:20:42;;;;;;;;;;;6.80;99.90;;;;;;5094585;28;20441;-85
2021/11/16 01:23:09;;;;;;;;;;;6.80;99.90;;;;;;5093566;28;19916;-85
2021/11/16 01:25:37;;;;;;;;;;;6.70;99.90;;;;;;5094523;28;19961;-86
2021/11/16 01:28:11;;;;;;;;;;;6.70;99.90;;;;;;5091053;28;19999;-86
2021/11/16 01:30:38;;;;;;;;;;;6.70;99.90;;;;;;5095621;28;19972;-86
2021/11/16 01:33:15;;;;;;;;;;;6.70;99.90;;;;;;5091638;28;19904;-86
2021/11/16 01:35:43;;;;;;;;;;;6.80;99.90;;;;;;5096839;28;19904;-85
2021/11/16 01:38:10;;;;;;;;;;;6.80;99.90;;;;;;5097359;28;19907;-86
2021/11/16 01:40:36;;;;;;;;;;;6.80;99.90;;;;;;5095672;28;20382;-85
2021/11/16 01:43:04;;;;;;;;;;;6.80;99.90;;;;;;5090764;28;20104;-86
2021/11/16 01:45:29;;;;;;;;;;;6.70;99.90;;;;;;5096412;28;19888;-86
2021/11/16 01:47:55;;;;;;;;;;;6.50;99.90;;;;;;5089618;28;19977;-86
2021/11/16 01:50:22;;;;;;;;;;;6.50;99.90;;;;;;5096940;28;19904;-86
2021/11/16 01:52:48;;;;;;;;;;;6.50;99.90;;;;;;5089047;28;19908;-85
2021/11/16 01:55:14;;;;;;;;;;;6.50;99.90;;;;;;5096964;28;19904;-86
2021/11/16 01:57:40;;;;;;;;;;;6.40;99.90;;;;;;5095653;28;19947;-86
2021/11/16 02:00:08;;;;;;;;;;;6.20;99.90;;;;;;5090931;28;19912;-85
2021/11/16 02:02:34;;;;;;;;;;;6.20;99.90;;;;;;5097061;28;19908;-86
2021/11/16 02:05:00;;;;;;;;;;;6.20;99.90;;;;;;5097294;28;19910;-86
2021/11/16 02:07:25;;;;;;;;;;;6.20;99.90;;;;;;5092631;28;19904;-85
2021/11/16 02:09:51;;;;;;;;;;;6.30;99.90;;;;;;5088583;28;19904;-86
2021/11/16 02:12:17;;;;;;;;;;;6.30;99.90;;;;;;5095249;28;20417;-86
2021/11/16 02:14:42;;;;;;;;;;;6.20;99.90;;;;;;5086380;28;19907;-86
2021/11/16 02:17:08;;;;;;;;;;;6.20;99.90;;;;;;5098448;28;19904;-86
2021/11/16 02:19:33;;;;;;;;;;;6.20;99.90;;;;;;5100555;28;19949;-86
2021/11/16 02:21:59;;;;;;;;;;;6.20;99.90;;;;;;5095537;28;19980;-86
2021/11/16 02:24:25;;;;;;;;;;;6.20;99.90;;;;;;5099324;28;20347;-85
2021/11/16 02:26:51;;;;;;;;;;;6.20;99.90;;;;;;5099249;28;19997;-86
2021/11/16 02:29:16;;;;;;;;;;;6.40;99.90;;;;;;5098917;28;19903;-86
2021/11/16 02:31:44;;;;;;;;;;;6.40;99.90;;;;;;5098877;28;19915;-86
2021/11/16 02:34:10;;;;;;;;;;;6.50;99.90;;;;;;5097681;28;19895;-86
2021/11/16 02:36:36;;;;;;;;;;;6.40;99.90;;;;;;5098708;28;19908;-86
2021/11/16 02:39:03;;;;;;;;;;;6.50;99.90;;;;;;5098023;28;19972;-85
2021/11/16 02:41:34;;;;;;;;;;;6.50;99.90;;;;;;5097851;28;20346;-85
2021/11/16 02:44:00;;;;;;;;;;;6.40;99.90;;;;;;5098525;28;20366;-86
2021/11/16 02:46:27;;;;;;;;;;;6.40;99.90;;;;;;5098496;28;19990;-85
2021/11/16 02:48:52;;;;;;;;;;;6.50;99.90;;;;;;5098681;28;20259;-86
2021/11/16 02:51:18;;;;;;;;;;;6.50;99.90;;;;;;5098570;28;19910;-86
2021/11/16 02:53:44;;;;;;;;;;;6.50;99.90;;;;;;5098366;28;19903;-85
2021/11/16 02:56:09;;;;;;;;;;;6.50;99.90;;;;;;5116055;28;19926;-86
2021/11/16 02:58:35;;;;;;;;;;;6.30;99.90;;;;;;5098532;28;20067;-85
2021/11/16 03:01:04;;;;;;;;;;;6.30;99.90;;;;;;5116459;28;20282;-86
2021/11/16 03:03:31;;;;;;;;;;;6.30;99.90;;;;;;5098302;28;19911;-86
2021/11/16 03:05:56;;;;;;;;;;;6.30;99.90;;;;;;5098287;28;19954;-86
2021/11/16 03:08:25;;;;;;;;;;;6.50;99.90;;;;;;5098305;28;19907;-85
2021/11/16 03:10:54;;;;;;;;;;;6.30;99.90;;;;;;5098059;28;19903;-86
2021/11/16 03:13:20;;;;;;;;;;;6.20;99.90;;;;;;5098417;28;19926;-86
2021/11/16 03:15:46;;;;;;;;;;;6.20;99.90;;;;;;5097266;28;19908;-85
2021/11/16 03:18:11;;;;;;;;;;;6.20;99.90;;;;;;5098118;28;19912;-85
2021/11/16 03:20:37;;;;;;;;;;;6.20;99.90;;;;;;5097927;28;19908;-86
2021/11/16 03:25:39;;;;;;;;;;;6.30;99.90;;;;;;5096148;28;20359;-86
2021/11/16 03:28:08;;;;;;;;;;;6.30;99.90;;;;;;5090035;28;19892;-86
2021/11/16 03:30:34;;;;;;;;;;;6.20;99.90;;;;;;5094851;28;19904;-86
2021/11/16 03:33:00;;;;;;;;;;;6.20;99.90;;;;;;5095517;28;19911;-86
2021/11/16 03:35:26;;;;;;;;;;;6.40;99.90;;;;;;5091574;28;20374;-86
2021/11/16 03:37:55;;;;;;;;;;;6.20;99.90;;;;;;5086961;28;19908;-86
2021/11/16 03:40:22;;;;;;;;;;;6.30;99.90;;;;;;5094524;28;19908;-86
2021/11/16 03:42:48;;;;;;;;;;;6.40;99.90;;;;;;5086735;28;19905;-86
2021/11/16 03:45:14;;;;;;;;;;;6.30;99.90;;;;;;5096257;28;19915;-85
2021/11/16 03:47:40;;;;;;;;;;;6.30;99.90;;;;;;5098465;28;19952;-86
2021/11/16 03:50:07;;;;;;;;;;;6.30;99.90;;;;;;5093284;28;19995;-86
2021/11/16 03:52:35;;;;;;;;;;;6.40;99.90;;;;;;5097393;28;19908;-86
2021/11/16 03:55:01;;;;;;;;;;;6.30;99.90;;;;;;5092235;28;20003;-86
2021/11/16 03:57:28;;;;;;;;;;;6.40;99.90;;;;;;5098353;28;19910;-86
2021/11/16 03:59:54;;;;;;;;;;;6.40;99.90;;;;;;5091679;28;19904;-86
2021/11/16 04:02:20;;;;;;;;;;;6.20;99.90;;;;;;5098250;28;20344;-86
2021/11/16 04:04:48;;;;;;;;;;;6.20;99.90;;;;;;5090438;28;19911;-85
2021/11/16 04:07:13;;;;;;;;;;;6.10;99.90;;;;;;5098100;28;19907;-86
2021/11/16 04:09:42;;;;;;;;;;;6.20;99.90;;;;;;5097301;28;19953;-86
2021/11/16 04:12:08;;;;;;;;;;;6.20;99.90;;;;;;5093153;28;19911;-86
2021/11/16 04:14:33;;;;;;;;;;;6.30;99.90;;;;;;5098257;28;19904;-86
2021/11/16 04:16:59;;;;;;;;;;;6.20;99.90;;;;;;5091866;28;20358;-86
2021/11/16 04:19:25;;;;;;;;;;;6.30;99.90;;;;;;5097874;28;19956;-86
2021/11/16 04:21:50;;;;;;;;;;;6.40;99.90;;;;;;5092473;28;19994;-86
2021/11/16 04:24:16;;;;;;;;;;;6.30;99.90;;;;;;5100917;28;20033;-86
2021/11/16 04:26:42;;;;;;;;;;;6.20;99.90;;;;;;5099902;28;19904;-86
2021/11/16 04:29:07;;;;;;;;;;;6.20;99.90;;;;;;5104512;28;20393;-85
2021/11/16 04:31:33;;;;;;;;;;;6.20;99.90;;;;;;5125148;28;19907;-85
2021/11/16 04:34:03;;;;;;;;;;;6.30;99.90;;;;;;5103842;28;19990;-86
2021/11/16 04:36:29;;;;;;;;;;;6.30;99.90;;;;;;5101626;28;20323;-86
2021/11/16 04:38:54;;;;;;;;;;;6.30;99.90;;;;;;5101376;28;19966;-85
2021/11/16 04:41:20;;;;;;;;;;;6.20;99.90;;;;;;5100660;28;20006;-86
2021/11/16 04:43:45;;;;;;;;;;;6.30;99.90;;;;;;5101213;28;19904;-86
2021/11/16 04:46:16;;;;;;;;;;;6.40;99.90;;;;;;5100800;28;20251;-86
2021/11/16 04:49:05;;;;;;;;;;;6.30;99.90;;;;;;5100778;28;19988;-86
2021/11/16 05:04:49;;;;;;;;;;;6.20;99.90;;;;;;5119278;28;19956;-86
2021/11/16 05:07:17;;;;;;;;;;;6.20;99.90;;;;;;5100219;28;19903;-86
2021/11/16 05:09:50;;;;;;;;;;;6.10;99.90;;;;;;5100296;28;19908;-86
2021/11/16 05:12:16;;;;;;;;;;;6.10;99.90;;;;;;5118585;28;19911;-86
2021/11/16 05:14:42;;;;;;;;;;;6.00;99.90;;;;;;5100370;28;20347;-86
2021/11/16 05:17:08;;;;;;;;;;;6.10;99.90;;;;;;5083345;28;19915;-86
2021/11/16 05:19:34;;;;;;;;;;;6.10;99.90;;;;;;5100812;28;19957;-85
2021/11/16 05:21:59;;;;;;;;;;;6.10;99.90;;;;;;5098806;28;20371;-86
2021/11/16 05:24:25;;;;;;;;;;;6.10;99.90;;;;;;5099892;28;19904;-86
2021/11/16 05:26:51;;;;;;;;;;;6.00;99.90;;;;;;5099925;28;19926;-85
2021/11/16 05:29:17;;;;;;;;;;;6.00;99.90;;;;;;5118012;28;19911;-85
2021/11/16 05:31:42;;;;;;;;;;;6.20;99.90;;;;;;5100132;28;19908;-86
2021/11/16 05:34:08;;;;;;;;;;;6.20;99.90;;;;;;5099785;28;19904;-85
2021/11/16 05:36:34;;;;;;;;;;;6.10;99.90;;;;;;5099603;28;19946;-86
2021/11/16 05:38:59;;;;;;;;;;;6.20;99.90;;;;;;5099621;28;19907;-86
2021/11/16 05:41:25;;;;;;;;;;;6.10;99.90;;;;;;5099737;28;19970;-86
2021/11/16 05:43:51;;;;;;;;;;;6.00;99.90;;;;;;5099509;28;19918;-86
2021/11/16 05:46:20;;;;;;;;;;;6.10;99.90;;;;;;5099559;28;20324;-85
2021/11/16 05:48:47;;;;;;;;;;;6.30;99.90;;;;;;5099400;28;19915;-85
2021/11/16 05:51:13;;;;;;;;;;;6.20;99.90;;;;;;5082368;28;20042;-86
2021/11/16 05:53:41;;;;;;;;;;;6.20;99.90;;;;;;5117307;28;19904;-85
2021/11/16 05:56:06;;;;;;;;;;;6.30;99.90;;;;;;5099384;28;19904;-85
2021/11/16 05:58:33;;;;;;;;;;;6.30;99.90;;;;;;5099382;28;20359;-85
2021/11/16 06:00:58;;;;;;;;;;;6.30;99.90;;;;;;5099598;28;19911;-86
2021/11/16 06:03:25;;;;;;;;;;;6.30;99.90;;;;;;5099378;28;19903;-85
2021/11/16 06:05:50;;;;;;;;;;;6.30;99.90;;;;;;5099547;28;19971;-86
2021/11/16 06:08:23;;;;;;;;;;;6.20;99.90;;;;;;5117494;28;20446;-86
2021/11/16 06:10:49;;;;;;;;;;;6.20;99.90;;;;;;5099046;28;19911;-86
2021/11/16 06:13:14;;;;;;;;;;;6.20;99.90;;;;;;5098971;28;19904;-86
2021/11/16 06:15:40;;;;;;;;;;;6.00;99.90;;;;;;5099229;28;19966;-86
2021/11/16 06:18:06;;;;;;;;;;;5.90;99.90;;;;;;5098881;28;19911;-86
2021/11/16 06:20:32;;;;;;;;;;;5.90;99.90;;;;;;5098632;28;20278;-86
2021/11/16 06:22:57;;;;;;;;;;;5.90;99.90;;;;;;5098345;28;19915;-86
2021/11/16 06:25:23;;;;;;;;;;;6.10;99.90;;;;;;5117134;28;20486;-85
2021/11/16 06:27:49;;;;;;;;;;;6.30;99.90;;;;;;5097886;28;19956;-85
2021/11/16 06:30:15;;;;;;;;;;;6.30;99.90;;;;;;5098796;28;19907;-85
2021/11/16 06:32:41;;;;;;;;;;;6.40;99.90;;;;;;5098676;28;19904;-86
2021/11/16 06:35:07;;;;;;;;;;;6.50;99.90;;;;;;5098713;28;19911;-86
2021/11/16 06:37:32;;;;;;;;;;;6.50;99.90;;;;;;5098502;28;19904;-86
2021/11/16 06:39:58;;;;;;;;;;;6.40;99.90;;;;;;5098556;28;19911;-86
2021/11/16 06:42:24;;;;;;;;;;;6.40;99.90;;;;;;5099857;28;19903;-85
2021/11/16 06:44:49;;;;;;;;;;;6.40;99.90;;;;;;5100396;28;19904;-85
2021/11/16 06:47:15;;;;;;;;;;;6.40;99.90;;;;;;5117782;28;19908;-85
2021/11/16 06:49:49;;;;;;;;;;;6.40;99.90;;;;;;5098773;28;19904;-85
2021/11/16 06:52:15;;;;;;;;;;;6.30;99.90;;;;;;5117048;28;19956;-85
2021/11/16 06:54:41;;;;;;;;;;;6.20;99.90;;;;;;5116851;28;19904;-86
2021/11/16 06:57:06;;;;;;;;;;;6.00;99.90;;;;;;5098130;28;19911;-85
2021/11/16 06:59:32;;;;;;;;;;;6.00;99.90;;;;;;5098260;28;19914;-85
2021/11/16 07:01:58;;;;;;;;;;;6.20;99.90;;;;;;5097543;28;20279;-85
2021/11/16 07:04:24;;;;;;;;;;;6.10;99.90;;;;;;5098318;28;19949;-85
2021/11/16 07:06:51;;;;;;;;;;;6.20;99.90;;;;;;5098220;28;19903;-85
2021/11/16 07:09:17;;;;;;;;;;;6.30;99.90;;;;;;5098031;28;20006;-85
2021/11/16 07:11:48;;;;;;;;;;;6.40;99.90;;;;;;5098483;28;19914;-85
2021/11/16 07:14:15;;;;;;;;;;;6.50;99.90;;;;;;5098020;28;20047;-85
2021/11/16 07:16:57;;;;;;;;;;;6.50;99.90;;;;;;5097769;28;20320;-85
2021/11/16 07:19:43;;;;;;;;;;;6.50;99.90;;;;;;5097243;28;20014;-84
2021/11/16 07:22:18;;;;;;;;;;;6.40;99.90;;;;;;5096845;28;19912;-85
2021/11/16 07:24:44;;;;;;;;;;;6.40;99.90;;;;;;5098229;28;19903;-85
2021/11/16 07:27:10;;;;;;;;;;;6.20;99.90;;;;;;5097603;28;19904;-85
2021/11/16 07:29:38;;;;;;;;;;;6.30;99.90;;;;;;5095820;28;19904;-85
2021/11/16 07:32:04;;;;;;;;;;;6.40;99.90;;;;;;5095677;28;19908;-85
2021/11/16 07:34:31;;;;;;;;;;;6.40;99.90;;;;;;5095630;28;20279;-85
2021/11/16 07:37:02;;;;;;;;;;;6.40;99.90;;;;;;5095639;28;19903;-85
2021/11/16 07:39:29;;;;;;;;;;;6.20;99.90;;;;;;5095640;28;19907;-86
2021/11/16 07:42:04;;;;;;;;;;;6.20;99.90;;;;;;5096017;28;19907;-85
2021/11/16 07:44:30;;;;;;;;;;;6.10;99.90;;;;;;5095957;28;20009;-85
2021/11/16 07:46:56;;;;;;;;;;;6.10;99.90;;;;;;5095813;28;19912;-85
2021/11/16 07:49:23;;;;;;;;;;;6.20;99.90;;;;;;5113739;28;19911;-85
2021/11/16 07:51:50;;;;;;;;;;;6.30;99.90;;;;;;5114038;28;20347;-85
2021/11/16 07:54:29;;;;;;;;;;;6.40;99.90;;;;;;5095397;28;19911;-85
2021/11/16 07:57:03;;;;;;;;;;;6.50;99.90;;;;;;5095393;28;20003;-85
2021/11/16 07:59:29;;;;;;;;;;;6.60;99.90;;;;;;5095237;28;19907;-85
2021/11/16 08:02:08;;;;;;;;;;;6.60;99.90;;;;;;5113644;28;19903;-86
2021/11/16 08:04:43;;;;;;;;;;;6.50;99.90;;;;;;5095374;28;19990;-85
2021/11/16 08:15:10;;;;;;;;;;;6.70;99.90;;;;;;5113573;28;20353;-85
2021/11/16 08:17:36;;;;;;;;;;;6.60;99.90;;;;;;5091022;28;20439;-85
2021/11/16 08:20:13;;;;;;;;;;;6.50;99.90;;;;;;5095290;28;19952;-85
2021/11/16 08:22:39;;;;;;;;;;;6.50;99.90;;;;;;5095018;28;19955;-85
2021/11/16 08:25:06;;;;;;;;;;;6.50;99.90;;;;;;5096395;28;20369;-85
2021/11/16 08:27:33;;;;;;;;;;;6.50;99.90;;;;;;5095388;28;19910;-85
2021/11/16 08:30:01;;;;;;;;;;;6.50;99.90;;;;;;5095060;28;19911;-85
2021/11/16 08:32:34;;;;;;;;;;;6.50;99.90;;;;;;5098492;28;19903;-86
2021/11/16 08:35:00;;;;;;;;;;;6.50;99.90;;;;;;5098986;28;19903;-85
2021/11/16 08:37:29;;;;;;;;;;;6.60;99.90;;;;;;5098610;28;20422;-85
2021/11/16 08:39:59;;;;;;;;;;;6.60;99.90;;;;;;5098686;28;19956;-85
2021/11/16 08:42:25;;;;;;;;;;;6.70;99.90;;;;;;5098624;28;19904;-85
2021/11/16 08:44:53;;;;;;;;;;;6.70;99.90;;;;;;5098707;28;19903;-85
2021/11/16 08:47:19;;;;;;;;;;;6.60;99.90;;;;;;5117158;28;20355;-86
2021/11/16 08:49:45;;;;;;;;;;;6.40;99.90;;;;;;5099491;28;20010;-85
2021/11/16 08:52:16;;;;;;;;;;;6.50;99.90;;;;;;5116324;28;19984;-86
2021/11/16 08:54:43;;;;;;;;;;;6.40;99.90;;;;;;5138260;28;19914;-85
2021/11/16 08:57:19;;;;;;;;;;;6.50;99.90;;;;;;5102822;28;19904;-86
2021/11/16 08:59:45;;;;;;;;;;;6.60;99.90;;;;;;5099159;28;19956;-86
2021/11/16 09:02:11;;;;;;;;;;;6.60;99.90;;;;;;5117236;28;19903;-86
2021/11/16 09:04:40;;;;;;;;;;;6.50;99.90;;;;;;5099003;28;19999;-86
2021/11/16 09:07:17;;;;;;;;;;;6.60;99.90;;;;;;5116639;28;19908;-86
2021/11/16 09:09:54;;;;;;;;;;;6.60;99.90;;;;;;5098147;28;19984;-86
2021/11/16 09:12:20;;;;;;;;;;;6.60;99.90;;;;;;5116511;28;19904;-86
2021/11/16 09:14:51;;;;;;;;;;;6.70;99.90;;;;;;5116530;28;19986;-86
2021/11/16 09:17:17;;;;;;;;;;;6.60;99.90;;;;;;5098245;28;19930;-86
2021/11/16 09:19:43;;;;;;;;;;;6.60;99.90;;;;;;5116495;28;19912;-86
2021/11/16 09:22:18;;;;;;;;;;;6.50;99.90;;;;;;5097656;28;19950;-86
2021/11/16 09:24:46;;;;;;;;;;;6.50;99.90;;;;;;5097892;28;20430;-86
2021/11/16 09:27:23;;;;;;;;;;;6.40;99.90;;;;;;5116054;28;19904;-86
2021/11/16 09:29:49;;;;;;;;;;;6.40;99.90;;;;;;5097811;28;19903;-86
2021/11/16 09:32:15;;;;;;;;;;;6.50;99.90;;;;;;5116173;28;20443;-86
2021/11/16 09:34:42;;;;;;;;;;;6.50;99.90;;;;;;5097713;28;19984;-87
2021/11/16 09:37:12;;;;;;;;;;;6.50;99.90;;;;;;5097772;28;20351;-86
2021/11/16 09:39:38;;;;;;;;;;;6.50;99.90;;;;;;5097542;28;19911;-86
2021/11/16 09:42:06;;;;;;;;;;;6.50;99.90;;;;;;5097325;28;19954;-86
2021/11/16 09:44:33;;;;;;;;;;;6.70;99.90;;;;;;5097341;28;19911;-86
2021/11/16 09:47:04;;;;;;;;;;;6.80;99.90;;;;;;5116581;28;19961;-86
2021/11/16 09:49:32;;;;;;;;;;;6.80;99.90;;;;;;5115764;28;19954;-86
2021/11/16 09:52:01;;;;;;;;;;;6.80;99.90;;;;;;5097386;28;19903;-87
2021/11/16 09:54:26;;;;;;;;;;;6.90;99.90;;;;;;5115683;28;20346;-86
2021/11/16 09:57:06;;;;;;;;;;;6.90;99.90;;;;;;5097353;28;19931;-86
2021/11/16 09:59:32;;;;;;;;;;;6.90;99.90;;;;;;5097202;28;19915;-86
2021/11/16 10:01:58;;;;;;;;;;;6.70;99.90;;;;;;5097046;28;19903;-86
2021/11/16 10:04:29;;;;;;;;;;;6.60;99.90;;;;;;5097217;28;19914;-87
2021/11/16 10:06:55;;;;;;;;;;;6.80;99.90;;;;;;5097306;28;19904;-87
2021/11/16 10:09:20;;;;;;;;;;;6.80;99.90;;;;;;5097101;28;19904;-86
2021/11/16 10:11:49;;;;;;;;;;;6.70;99.90;;;;;;5115557;28;19990;-86
2021/11/16 10:14:16;;;;;;;;;;;6.70;99.90;;;;;;5097104;28;20097;-86
2021/11/16 10:16:42;;;;;;;;;;;6.80;99.90;;;;;;5115327;28;19947;-87
2021/11/16 10:19:07;;;;;;;;;;;6.80;99.90;;;;;;5097021;28;19930;-87
2021/11/16 10:21:34;;;;;;;;;;;6.80;99.90;;;;;;5097221;28;19907;-86
2021/11/16 10:24:01;;;;;;;;;;;6.80;99.90;;;;;;5097394;28;19916;-86
2021/11/16 10:26:33;;;;;;;;;;;6.80;99.90;;;;;;5097657;28;20274;-87
2021/11/16 10:28:59;;;;;;;;;;;6.80;99.90;;;;;;5097280;28;19904;-86
2021/11/16 10:31:27;;;;;;;;;;;7.00;99.90;;;;;;5096849;28;19941;-85
2021/11/16 10:33:52;;;;;;;;;;;7.00;99.90;;;;;;5079872;28;19908;-85
2021/11/16 10:36:20;;;;;;;;;;;6.90;99.90;;;;;;5098325;28;19994;-86
2021/11/16 10:38:47;;;;;;;;;;;7.00;99.90;;;;;;5096617;28;19907;-86
2021/11/16 10:41:16;;;;;;;;;;;7.00;99.90;;;;;;5114873;28;19903;-85
2021/11/16 10:43:44;;;;;;;;;;;7.00;99.90;;;;;;5096386;28;20346;-85
2021/11/16 10:46:10;;;;;;;;;;;7.00;99.90;;;;;;5096412;28;19911;-86
2021/11/16 10:48:37;;;;;;;;;;;6.90;99.90;;;;;;5097028;28;20307;-85
2021/11/16 10:51:07;;;;;;;;;;;6.90;99.90;;;;;;5096678;28;20329;-86
2021/11/16 10:53:33;;;;;;;;;;;6.80;99.90;;;;;;5114498;28;19903;-86
2021/11/16 10:56:01;;;;;;;;;;;6.90;99.90;;;;;;5095701;28;19908;-86
2021/11/16 10:58:32;;;;;;;;;;;6.90;99.90;;;;;;5105374;28;19908;-86
2021/11/16 11:01:03;;;;;;;;;;;7.00;99.90;;;;;;5117853;28;19914;-85
2021/11/16 11:03:33;;;;;;;;;;;7.00;99.90;;;;;;5104903;28;19903;-85
2021/11/16 11:06:00;;;;;;;;;;;7.00;99.90;;;;;;5097013;28;20423;-86
2021/11/16 11:08:30;;;;;;;;;;;7.00;99.90;;;;;;5096431;28;19903;-85
2021/11/16 11:10:56;;;;;;;;;;;6.90;99.90;;;;;;5096090;28;19911;-85
2021/11/16 11:13:22;;;;;;;;;;;7.00;99.90;;;;;;5096151;28;19997;-85
2021/11/16 11:15:49;;;;;;;;;;;7.00;99.90;;;;;;5095893;28;19908;-85
2021/11/16 11:18:50;;;;;;;;;;;7.00;99.90;;;;;;5095940;28;20355;-85
2021/11/16 11:21:30;;;;;;;;;;;7.00;99.90;;;;;;5038227;28;19908;-85
2021/11/16 11:23:59;;;;;;;;;;;6.90;99.90;;;;;;5093684;28;19924;-87
2021/11/16 11:26:33;;;;;;;;;;;6.90;99.90;;;;;;5075700;28;19904;-87
2021/11/16 11:29:36;;;;;;;;;;;7.00;99.90;;;;;;5075744;28;19904;-86
2021/11/16 11:31:58;;;;;;;;;;;6.90;99.90;;;;;;5090398;28;19958;-87
2021/11/16 11:34:32;;;;;;;;;;;7.00;99.90;;;;;;5075838;28;20275;-86
2021/11/16 11:37:02;;;;;;;;;;;7.00;99.90;;;;;;5075445;28;19995;-87
2021/11/16 11:39:31;;;;;;;;;;;6.90;99.90;;;;;;5078056;28;19999;-86
2021/11/16 11:41:57;;;;;;;;;;;7.00;99.90;;;;;;5077874;28;20359;-86
2021/11/16 11:44:25;;;;;;;;;;;6.90;99.90;;;;;;5075722;28;19904;-87
2021/11/16 11:46:53;;;;;;;;;;;6.90;99.90;;;;;;5075350;28;19905;-87
2021/11/16 11:49:18;;;;;;;;;;;7.00;99.90;;;;;;5075403;28;19908;-87
2021/11/16 11:51:44;;;;;;;;;;;7.00;99.90;;;;;;5075484;28;19904;-87
2021/11/16 11:54:10;;;;;;;;;;;7.10;99.90;;;;;;5093431;28;19940;-86
2021/11/16 11:56:36;;;;;;;;;;;7.10;99.90;;;;;;5075322;28;19911;-87
2021/11/16 11:59:02;;;;;;;;;;;7.10;99.90;;;;;;5075204;28;19908;-86
2021/11/16 12:01:28;;;;;;;;;;;7.10;99.90;;;;;;5075218;28;19990;-87
2021/11/16 12:03:55;;;;;;;;;;;7.10;99.90;;;;;;5093471;28;19941;-87
2021/11/16 12:06:22;;;;;;;;;;;7.00;99.90;;;;;;5095352;28;19904;-87
2021/11/16 12:08:50;;;;;;;;;;;7.00;99.90;;;;;;5079154;28;19904;-87
2021/11/16 12:11:16;;;;;;;;;;;7.00;99.90;;;;;;5079090;28;19911;-87
2021/11/16 12:13:42;;;;;;;;;;;7.00;99.90;;;;;;5097162;28;19904;-87
2021/11/16 12:16:09;;;;;;;;;;;6.90;99.90;;;;;;5097383;28;19986;-86
2021/11/16 12:18:42;;;;;;;;;;;7.00;99.90;;;;;;5078732;28;20441;-87
2021/11/16 12:21:27;;;;;;;;;;;7.00;99.90;;;;;;5078861;28;19941;-87
2021/11/16 12:23:58;;;;;;;;;;;7.00;99.90;;;;;;5094763;28;20287;-86
2021/11/16 12:26:26;;;;;;;;;;;7.00;99.90;;;;;;5095788;28;19915;-87
2021/11/16 12:28:51;;;;;;;;;;;6.90;99.90;;;;;;5088503;28;19961;-87
2021/11/16 12:31:25;;;;;;;;;;;6.90;99.90;;;;;;5096895;28;19941;-86
2021/11/16 12:33:51;;;;;;;;;;;7.00;99.90;;;;;;5096767;28;19904;-87
2021/11/16 12:36:29;;;;;;;;;;;6.90;99.90;;;;;;5092140;28;20274;-86
2021/11/16 12:38:56;;;;;;;;;;;7.10;99.90;;;;;;5095257;28;19931;-86
2021/11/16 12:41:39;;;;;;;;;;;6.90;99.90;;;;;;5095308;28;19965;-86
2021/11/16 12:44:06;;;;;;;;;;;7.00;99.90;;;;;;5090099;28;19951;-86
2021/11/16 12:46:33;;;;;;;;;;;7.00;99.90;;;;;;5095271;28;19904;-86
2021/11/16 12:48:59;;;;;;;;;;;7.10;99.90;;;;;;5096451;28;19904;-86
2021/11/16 12:51:31;;;;;;;;;;;7.00;99.90;;;;;;5096328;28;19904;-86
2021/11/16 12:54:15;;;;;;;;;;;7.00;99.90;;;;;;5089587;28;19918;-86
2021/11/16 12:56:45;;;;;;;;;;;7.00;99.90;;;;;;5096659;28;19904;-86
2021/11/16 12:59:12;;;;;;;;;;;6.90;99.90;;;;;;5090560;28;19908;-86
2021/11/16 13:01:40;;;;;;;;;;;7.00;99.90;;;;;;5095171;28;19915;-86
2021/11/16 13:04:07;;;;;;;;;;;7.00;99.90;;;;;;5090062;28;19911;-86
2021/11/16 13:06:34;;;;;;;;;;;6.90;99.90;;;;;;5097742;28;20348;-86
2021/11/16 13:08:59;;;;;;;;;;;7.00;99.90;;;;;;5110795;28;19943;-85
2021/11/16 13:11:42;;;;;;;;;;;7.10;99.90;;;;;;5115390;28;19904;-86
2021/11/16 13:14:08;;;;;;;;;;;7.20;99.90;;;;;;5092634;28;19911;-86
2021/11/16 13:16:35;;;;;;;;;;;7.10;99.90;;;;;;5095711;28;19908;-86
2021/11/16 13:19:00;;;;;;;;;;;7.10;99.90;;;;;;5088300;28;19908;-86
2021/11/16 13:21:27;;;;;;;;;;;7.00;99.90;;;;;;5094721;28;19904;-86
2021/11/16 13:23:58;;;;;;;;;;;7.00;99.90;;;;;;5087371;28;19923;-86
2021/11/16 13:26:26;;;;;;;;;;;7.00;99.90;;;;;;5095687;28;19947;-86
2021/11/16 13:31:20;;;;;;;;;;;6.80;99.90;;;;;;5116255;28;19956;-86
2021/11/16 13:33:58;;;;;;;;;;;6.80;99.90;;;;;;5097961;28;19987;-86
2021/11/16 13:36:33;;;;;;;;;;;6.80;99.90;;;;;;5098159;28;20286;-87
2021/11/16 13:39:07;;;;;;;;;;;6.80;99.90;;;;;;5097571;28;19914;-87
2021/11/16 13:41:39;;;;;;;;;;;6.80;99.90;;;;;;5097630;28;19911;-86
2021/11/16 13:44:09;;;;;;;;;;;6.70;99.90;;;;;;5097616;28;19907;-86
2021/11/16 13:46:34;;;;;;;;;;;6.80;99.90;;;;;;5097628;28;19957;-86
2021/11/16 13:49:00;;;;;;;;;;;6.80;99.90;;;;;;5097477;28;19904;-86
2021/11/16 13:51:26;;;;;;;;;;;6.70;99.90;;;;;;5098209;28;19903;-87
2021/11/16 13:53:55;;;;;;;;;;;6.70;99.90;;;;;;5097304;28;19904;-86
2021/11/16 13:56:21;;;;;;;;;;;6.70;99.90;;;;;;5115497;28;19911;-86
2021/11/16 13:58:47;;;;;;;;;;;6.80;99.90;;;;;;5097496;28;19907;-87
2021/11/16 14:01:14;;;;;;;;;;;6.70;99.90;;;;;;5097191;28;19907;-86
2021/11/16 14:03:40;;;;;;;;;;;6.70;99.90;;;;;;5097494;28;19904;-86
2021/11/16 14:06:05;;;;;;;;;;;6.70;99.90;;;;;;5097191;28;19957;-86
2021/11/16 14:08:32;;;;;;;;;;;6.70;99.90;;;;;;5097112;28;19910;-86
2021/11/16 14:10:58;;;;;;;;;;;6.60;99.90;;;;;;5097126;28;19998;-86
2021/11/16 14:13:24;;;;;;;;;;;6.60;99.90;;;;;;5115195;28;19907;-86
2021/11/16 14:15:56;;;;;;;;;;;6.70;99.90;;;;;;5096899;28;19910;-86
2021/11/16 14:18:22;;;;;;;;;;;6.60;99.90;;;;;;5096832;28;19914;-86
2021/11/16 14:21:10;;;;;;;;;;;6.60;99.90;;;;;;5115199;28;19904;-86
2021/11/16 14:23:37;;;;;;;;;;;6.60;99.90;;;;;;5097644;28;19915;-86
2021/11/16 14:26:10;;;;;;;;;;;6.60;99.90;;;;;;5096681;28;20343;-86
2021/11/16 14:28:40;;;;;;;;;;;6.50;99.90;;;;;;5096556;28;19990;-86
2021/11/16 14:31:10;;;;;;;;;;;6.50;99.90;;;;;;5096603;28;19910;-86
2021/11/16 14:33:39;;;;;;;;;;;6.50;99.90;;;;;;5096632;28;20355;-87
2021/11/16 14:36:05;;;;;;;;;;;6.50;99.90;;;;;;5096463;28;19911;-87
2021/11/16 14:38:32;;;;;;;;;;;6.50;99.90;;;;;;5096420;28;19907;-86
2021/11/16 14:40:59;;;;;;;;;;;6.50;99.90;;;;;;5096570;28;19904;-86
2021/11/16 14:43:26;;;;;;;;;;;6.50;99.90;;;;;;5096404;28;20374;-86
2021/11/16 14:45:53;;;;;;;;;;;6.50;99.90;;;;;;5096359;28;20370;-86
2021/11/16 14:48:31;;;;;;;;;;;6.60;99.90;;;;;;5096498;28;20266;-86
2021/11/16 14:51:15;;;;;;;;;;;6.50;99.90;;;;;;5096246;28;19951;-86
2021/11/16 14:53:40;;;;;;;;;;;6.60;99.90;;;;;;5096219;28;20282;-86
2021/11/16 14:56:13;;;;;;;;;;;6.70;99.90;;;;;;5096140;28;19903;-86
2021/11/16 14:58:39;;;;;;;;;;;6.60;99.90;;;;;;5096147;28;19908;-86
2021/11/16 15:01:05;;;;;;;;;;;6.50;99.90;;;;;;5096113;28;20344;-86